Aérodrome :
LOGIN :

S'inscrire | Disclaimer

   EN    FR    IT 

 










Légende :    VFR   VFR Marginal   IFR   IFR Intensif   IFR Très Intensif
Visi : 
Plafond : 
>= 8 km
>= 3000ft
5 à 8 km
1000 à 3000 ft
1500m à 5 km
500 à 1000 ft
800 à 1500m
200 à 500 ft
< 800m
< 200 ft
Symboles :   Orages  Brouillard  Fortes neiges  Fortes précipitations  Vent > 20 kt
SIGMETs :   Divers  Orages  Givrage  Turbulence  Onde Orograph.  Cendres Volcan.






- Altitude de l'aérodrome : 2096 ft
- Code IATA : AUR


LFLW - Aurillac

DERNIER METAR :
  • 260500Z AUTO 09006KT CAVOK 11/08 Q1018

METARs EXPIRÉS :
  • 260430Z AUTO 09007KT CAVOK 11/07 Q1018
  • 260400Z AUTO 08009KT CAVOK 11/07 Q1018
  • 260330Z AUTO 08007KT CAVOK 11/07 Q1018
  • 260300Z AUTO 09008KT CAVOK 10/07 Q1018
  • 260230Z AUTO 09007KT CAVOK 10/07 Q1018
  • 260200Z AUTO 09007KT CAVOK 10/07 Q1018
  • 260130Z AUTO 08007KT CAVOK 11/07 Q1018
  • 260100Z AUTO 09007KT CAVOK 11/07 Q1018
  • 260030Z AUTO 09008KT CAVOK 11/07 Q1018

Prévision TAF périmée.



MET'MAP, la Météo Aéronautique d'un coup d'oeil ! - Copyright ORBIFLY Décembre 2007 - Disclaimer

ORBIFLY MET'MAP TEAM :

Programmation & Développement : Alexandra Zaïnal
Sur une idée originale de : Baudouin d'Aumeries
Soutien technique & logistique : Manuel Goepfert
Assistance : Marc-Olivier Méhu




SOURCES & CREDITS :

   NOAA